Terminal Aerodrome Forecast
Issued by NWS

Home | Current Version | Previous Version | Text Only | Print | Product List | Glossary On
Versions: 1 2 3 4 5 6 7 8 9 10 11 12
000
FTUS46 KMFR 302300
TAFRBG
TAF
KRBG 302320Z 3100/3124 36010KT P6SM SCT100 SCT250
     FM310400 VRB03KT P6SM SCT100 SCT250
     FM312100 36010KT P6SM SCT100 BKN250=

USA.gov is the U.S. government's official web portal to all federal, state and local government web resources and services.